createdAt,value
2017-09-06T00:02:22.844Z,15.27
2017-09-06T00:04:51.387Z,15.28
2017-09-06T00:07:19.855Z,15.31
2017-09-06T00:09:48.319Z,15.32
2017-09-06T00:12:16.754Z,15.35
2017-09-06T00:14:45.322Z,15.38
2017-09-06T00:17:13.748Z,15.37
2017-09-06T00:19:42.994Z,15.29
2017-09-06T00:22:13.041Z,15.27
2017-09-06T00:24:41.584Z,15.27
2017-09-06T00:27:10.068Z,15.26
2017-09-06T00:29:38.560Z,15.26
2017-09-06T00:32:06.993Z,15.27
2017-09-06T00:34:35.526Z,15.21
2017-09-06T00:37:03.956Z,15.18
2017-09-06T00:39:32.418Z,15.12
2017-09-06T00:42:00.969Z,15.15
2017-09-06T00:44:29.423Z,15.10
2017-09-06T00:46:57.924Z,15.07
2017-09-06T00:49:26.381Z,15.12
2017-09-06T00:51:54.897Z,15.13
2017-09-06T00:54:23.380Z,15.12
2017-09-06T00:56:51.854Z,15.13
2017-09-06T00:59:20.348Z,15.13
2017-09-06T01:01:48.772Z,15.13
2017-09-06T01:04:17.233Z,15.15
2017-09-06T01:06:45.688Z,15.12
2017-09-06T01:09:14.151Z,15.12
2017-09-06T01:11:42.581Z,15.10
2017-09-06T01:14:11.016Z,15.08
2017-09-06T01:16:39.499Z,15.08
2017-09-06T01:19:07.994Z,15.10
2017-09-06T01:21:36.478Z,15.10
2017-09-06T01:24:04.963Z,15.15
2017-09-06T01:26:33.424Z,15.21
2017-09-06T01:29:01.922Z,15.11
2017-09-06T01:31:30.388Z,15.13
2017-09-06T01:33:58.807Z,15.15
2017-09-06T01:36:27.364Z,15.17
2017-09-06T01:38:55.835Z,15.19
2017-09-06T01:41:24.333Z,15.23
2017-09-06T01:43:52.809Z,15.24
2017-09-06T01:46:21.293Z,15.23
2017-09-06T01:48:49.759Z,15.25
2017-09-06T01:51:18.243Z,15.27
2017-09-06T01:53:46.676Z,15.33
2017-09-06T01:56:15.115Z,15.35
2017-09-06T01:58:43.609Z,15.38
2017-09-06T02:01:12.081Z,15.31
2017-09-06T02:03:40.551Z,15.27
2017-09-06T02:06:09.045Z,15.27
2017-09-06T02:08:37.486Z,15.26
2017-09-06T02:11:06.013Z,15.33
2017-09-06T02:13:34.446Z,15.33
2017-09-06T02:16:02.900Z,15.30
2017-09-06T02:18:31.353Z,15.29
2017-09-06T02:20:59.844Z,15.33
2017-09-06T02:23:28.277Z,15.31
2017-09-06T02:25:56.787Z,15.27
2017-09-06T02:28:25.210Z,15.26
2017-09-06T02:30:53.743Z,15.26
2017-09-06T02:33:22.231Z,15.29
2017-09-06T02:35:50.683Z,15.32
2017-09-06T02:38:19.121Z,15.32
2017-09-06T02:40:47.683Z,15.28
2017-09-06T02:43:16.143Z,15.28
2017-09-06T02:45:44.656Z,15.28
2017-09-06T02:48:13.079Z,15.31
2017-09-06T02:50:41.533Z,15.34
2017-09-06T02:53:10.010Z,15.36
2017-09-06T02:55:38.471Z,15.33
2017-09-06T02:58:06.951Z,15.37
2017-09-06T03:00:35.404Z,15.35
2017-09-06T03:03:03.931Z,15.33
2017-09-06T03:05:32.388Z,15.41
2017-09-06T03:08:00.820Z,15.44
2017-09-06T03:10:29.368Z,15.46
2017-09-06T03:12:57.822Z,15.48
2017-09-06T03:15:26.333Z,15.51
2017-09-06T03:17:54.828Z,15.50
2017-09-06T03:20:23.296Z,15.46
2017-09-06T03:22:51.748Z,15.39
2017-09-06T03:25:20.369Z,15.37
2017-09-06T03:27:48.839Z,15.36
2017-09-06T03:30:17.336Z,15.31
2017-09-06T03:32:45.799Z,15.31
2017-09-06T03:35:14.288Z,15.32
2017-09-06T03:37:42.773Z,15.32
2017-09-06T03:40:11.264Z,15.34
2017-09-06T03:42:39.745Z,15.35
2017-09-06T03:45:08.181Z,15.40
2017-09-06T03:47:36.695Z,15.40
2017-09-06T03:50:05.176Z,15.39
2017-09-06T03:52:33.663Z,15.45
2017-09-06T03:55:02.140Z,15.41
2017-09-06T03:57:30.628Z,15.32
2017-09-06T03:59:59.069Z,15.28
2017-09-06T04:02:27.592Z,15.29
2017-09-06T04:04:56.083Z,15.23
2017-09-06T04:07:24.527Z,15.20
2017-09-06T04:09:53.032Z,15.22
2017-09-06T04:12:21.535Z,15.24
2017-09-06T04:14:49.995Z,15.29
2017-09-06T04:17:18.498Z,15.33
2017-09-06T04:19:46.975Z,15.33
2017-09-06T04:22:15.427Z,15.31
2017-09-06T04:24:43.926Z,15.29
2017-09-06T04:27:12.377Z,15.27
2017-09-06T04:29:40.817Z,15.27
2017-09-06T04:32:09.381Z,15.28
2017-09-06T04:34:37.826Z,15.34
2017-09-06T04:37:07.029Z,15.39
2017-09-06T04:39:35.535Z,15.35
2017-09-06T04:42:03.993Z,15.38
2017-09-06T04:44:32.613Z,15.35
2017-09-06T04:47:01.088Z,15.39
2017-09-06T04:49:29.574Z,15.40
2017-09-06T04:51:58.020Z,15.37
2017-09-06T04:54:26.532Z,15.47
2017-09-06T04:56:55.026Z,15.46
2017-09-06T04:59:23.460Z,15.48
2017-09-06T05:01:51.990Z,15.54
2017-09-06T05:04:20.425Z,15.59
2017-09-06T05:06:48.935Z,15.68
2017-09-06T05:09:17.435Z,15.74
2017-09-06T05:11:45.870Z,15.76
2017-09-06T05:14:14.383Z,15.76
2017-09-06T05:16:42.825Z,15.75
2017-09-06T05:19:11.364Z,15.76
2017-09-06T05:21:39.809Z,15.73
2017-09-06T05:24:08.311Z,15.75
2017-09-06T05:26:36.735Z,15.78
2017-09-06T05:29:05.188Z,15.87
2017-09-06T05:31:33.662Z,15.84
2017-09-06T05:34:02.103Z,15.90
2017-09-06T05:36:30.636Z,15.89
2017-09-06T05:38:59.096Z,15.92
2017-09-06T05:41:27.589Z,16.05
2017-09-06T05:43:56.026Z,16.05
2017-09-06T05:46:24.555Z,16.12
2017-09-06T05:48:53.018Z,16.08
2017-09-06T05:51:21.529Z,16.09
2017-09-06T05:53:49.984Z,16.08
2017-09-06T05:56:18.475Z,16.16
2017-09-06T05:58:46.924Z,16.21
2017-09-06T06:01:15.449Z,16.19
2017-09-06T06:03:43.899Z,16.25
2017-09-06T06:06:12.404Z,16.26
2017-09-06T06:08:40.887Z,16.32
2017-09-06T06:11:09.368Z,16.34
2017-09-06T06:13:37.863Z,16.25
2017-09-06T06:16:06.347Z,16.20
2017-09-06T06:18:34.799Z,16.19
2017-09-06T06:21:03.299Z,16.19
2017-09-06T06:23:31.781Z,16.21
2017-09-06T06:26:00.217Z,16.22
2017-09-06T06:28:28.743Z,16.26
2017-09-06T06:30:57.230Z,16.27
2017-09-06T06:33:25.719Z,16.33
2017-09-06T06:35:54.187Z,16.36
2017-09-06T06:38:22.639Z,16.43
2017-09-06T06:40:51.067Z,16.47
2017-09-06T06:43:19.531Z,16.54
2017-09-06T06:45:48.015Z,16.57
2017-09-06T06:48:16.499Z,16.56
2017-09-06T06:50:44.928Z,16.58
2017-09-06T06:53:13.469Z,16.67
2017-09-06T06:55:41.961Z,16.75
2017-09-06T06:58:10.424Z,16.80
2017-09-06T07:00:38.907Z,16.91
2017-09-06T07:03:07.374Z,16.93
2017-09-06T07:05:36.598Z,16.94
2017-09-06T07:08:05.076Z,17.02
2017-09-06T07:10:33.503Z,17.06
2017-09-06T07:13:02.031Z,17.12
2017-09-06T07:15:30.483Z,17.11
2017-09-06T07:17:58.996Z,17.15
2017-09-06T07:20:27.490Z,17.27
2017-09-06T07:22:55.960Z,17.31
2017-09-06T07:25:24.460Z,17.47
2017-09-06T07:27:52.913Z,17.51
2017-09-06T07:30:21.457Z,17.53
2017-09-06T07:32:49.996Z,17.60
2017-09-06T07:35:18.485Z,17.72
2017-09-06T07:37:46.933Z,17.73
2017-09-06T07:40:15.435Z,17.77
2017-09-06T07:42:43.937Z,17.80
2017-09-06T07:45:12.587Z,17.91
2017-09-06T07:47:41.088Z,17.87
2017-09-06T07:50:09.582Z,18.01
2017-09-06T07:52:38.019Z,17.98
2017-09-06T07:55:06.486Z,18.06
2017-09-06T07:57:34.931Z,18.22
2017-09-06T08:00:03.510Z,18.26
2017-09-06T08:02:31.993Z,18.34
2017-09-06T08:05:00.443Z,18.38
2017-09-06T08:07:28.880Z,18.58
2017-09-06T08:09:57.338Z,18.70
2017-09-06T08:12:25.825Z,18.84
2017-09-06T08:14:54.401Z,18.91
2017-09-06T08:17:22.871Z,18.84
2017-09-06T08:19:51.372Z,19.09
2017-09-06T08:22:19.803Z,19.29
2017-09-06T08:24:48.274Z,19.48
2017-09-06T08:27:16.799Z,19.57
2017-09-06T08:29:45.298Z,19.73
2017-09-06T08:32:13.739Z,20.05
2017-09-06T08:34:42.955Z,20.07
2017-09-06T08:37:11.392Z,20.34
2017-09-06T08:39:39.927Z,20.47
2017-09-06T08:42:08.355Z,20.49
2017-09-06T08:44:36.902Z,20.48
2017-09-06T08:47:05.336Z,20.49
2017-09-06T08:49:33.851Z,20.30
2017-09-06T08:52:02.341Z,19.99
2017-09-06T08:54:30.831Z,19.70
2017-09-06T08:56:59.260Z,19.69
2017-09-06T08:59:27.725Z,19.76
2017-09-06T09:01:56.157Z,19.91
2017-09-06T09:04:24.639Z,20.02
2017-09-06T09:06:53.133Z,20.20
2017-09-06T09:09:21.613Z,20.24
2017-09-06T09:11:50.106Z,20.47
2017-09-06T09:14:18.588Z,20.51
2017-09-06T09:16:47.044Z,20.56
2017-09-06T09:19:15.535Z,20.62
2017-09-06T09:21:44.019Z,20.18
2017-09-06T09:24:12.511Z,20.11
2017-09-06T09:26:40.998Z,19.95
2017-09-06T09:29:09.474Z,19.82
2017-09-06T09:31:37.961Z,19.59
2017-09-06T09:34:06.391Z,19.49
2017-09-06T09:36:34.853Z,19.31
2017-09-06T09:39:03.392Z,19.17
2017-09-06T09:41:31.893Z,18.92
2017-09-06T09:44:00.668Z,18.80
2017-09-06T09:46:29.162Z,18.69
2017-09-06T09:48:57.627Z,18.53
2017-09-06T09:51:26.187Z,18.47
2017-09-06T09:53:54.692Z,18.32
2017-09-06T09:56:23.186Z,18.34
2017-09-06T09:58:51.640Z,18.05
2017-09-06T10:01:20.867Z,18.09
2017-09-06T10:03:49.354Z,18.01
2017-09-06T10:06:17.818Z,18.03
2017-09-06T10:08:46.247Z,17.86
2017-09-06T10:11:14.788Z,17.87
2017-09-06T10:13:43.227Z,17.87
2017-09-06T10:16:11.684Z,17.90
2017-09-06T10:18:40.144Z,17.93
2017-09-06T10:21:08.730Z,17.91
2017-09-06T10:23:37.201Z,18.07
2017-09-06T10:26:05.688Z,18.10
2017-09-06T10:28:34.123Z,17.95
2017-09-06T10:31:02.654Z,17.88
2017-09-06T10:33:31.111Z,17.88
2017-09-06T10:35:59.581Z,17.93
2017-09-06T10:38:28.771Z,17.94
2017-09-06T10:40:57.285Z,17.93
2017-09-06T10:43:25.789Z,17.90
2017-09-06T10:45:54.471Z,17.77
2017-09-06T10:48:23.532Z,17.85
2017-09-06T10:50:52.042Z,17.89
2017-09-06T10:53:20.525Z,17.88
2017-09-06T10:55:48.999Z,17.93
2017-09-06T10:58:17.495Z,18.11
2017-09-06T11:00:45.953Z,18.15
2017-09-06T11:03:14.456Z,18.28
2017-09-06T11:05:42.934Z,18.35
2017-09-06T11:08:11.399Z,18.58
2017-09-06T11:10:39.903Z,18.76
2017-09-06T11:13:08.365Z,18.89
2017-09-06T11:15:36.868Z,18.99
2017-09-06T11:18:05.331Z,19.04
2017-09-06T11:20:33.835Z,18.83
2017-09-06T11:23:02.520Z,18.99
2017-09-06T11:25:30.992Z,19.24
2017-09-06T11:27:59.482Z,19.41
2017-09-06T11:30:27.959Z,19.64
2017-09-06T11:32:56.442Z,20.04
2017-09-06T11:35:24.871Z,20.07
2017-09-06T11:37:53.342Z,20.28
2017-09-06T11:40:21.780Z,20.55
2017-09-06T11:42:50.255Z,20.61
2017-09-06T11:45:18.695Z,20.99
2017-09-06T11:47:47.219Z,21.04
2017-09-06T11:50:15.648Z,20.98
2017-09-06T11:52:44.118Z,21.04
2017-09-06T11:55:12.668Z,21.07
2017-09-06T11:57:41.135Z,21.14
2017-09-06T12:00:09.572Z,20.90
2017-09-06T12:02:38.122Z,21.07
2017-09-06T12:05:06.591Z,21.21
2017-09-06T12:07:35.033Z,21.34
2017-09-06T12:10:03.461Z,21.90
2017-09-06T12:12:31.929Z,21.85
2017-09-06T12:15:00.365Z,21.68
2017-09-06T12:17:28.904Z,21.60
2017-09-06T12:19:57.379Z,21.68
2017-09-06T12:22:25.832Z,21.71
2017-09-06T12:24:54.344Z,21.45
2017-09-06T12:27:22.837Z,21.63
2017-09-06T12:29:51.312Z,21.90
2017-09-06T12:32:19.809Z,21.95
2017-09-06T12:34:48.272Z,22.05
2017-09-06T12:37:16.765Z,21.86
2017-09-06T12:39:45.208Z,21.75
2017-09-06T12:42:14.454Z,21.88
2017-09-06T12:44:42.915Z,21.74
2017-09-06T12:47:11.403Z,21.82
2017-09-06T12:49:39.894Z,21.68
2017-09-06T12:52:08.373Z,21.53
2017-09-06T12:54:36.821Z,21.40
2017-09-06T12:57:05.331Z,21.31
2017-09-06T12:59:33.760Z,21.44
2017-09-06T13:02:02.245Z,21.44
2017-09-06T13:04:30.776Z,21.58
2017-09-06T13:06:59.255Z,21.66
2017-09-06T13:09:27.703Z,21.75
2017-09-06T13:11:56.220Z,21.69
2017-09-06T13:14:24.676Z,21.51
2017-09-06T13:16:53.193Z,21.41
2017-09-06T13:19:21.678Z,21.47
2017-09-06T13:21:50.122Z,21.47
2017-09-06T13:24:18.581Z,21.52
2017-09-06T13:26:47.117Z,21.79
2017-09-06T13:29:15.607Z,21.96
2017-09-06T13:31:44.049Z,21.99
2017-09-06T13:34:12.505Z,22.07
2017-09-06T13:36:40.945Z,22.23
2017-09-06T13:39:09.387Z,22.32
2017-09-06T13:41:37.899Z,22.34
2017-09-06T13:44:06.399Z,22.37
2017-09-06T13:46:34.831Z,22.76
2017-09-06T13:49:03.353Z,23.22
2017-09-06T13:51:31.776Z,23.37
2017-09-06T13:54:00.215Z,23.34
2017-09-06T13:56:28.649Z,23.69
2017-09-06T13:58:57.100Z,23.72
2017-09-06T14:01:25.531Z,24.02
2017-09-06T14:03:54.041Z,23.80
2017-09-06T14:06:22.506Z,23.74
2017-09-06T14:08:51.009Z,23.39
2017-09-06T14:11:19.488Z,22.95
2017-09-06T14:13:47.927Z,22.78
2017-09-06T14:16:16.457Z,22.49
2017-09-06T14:18:44.918Z,22.32
2017-09-06T14:21:13.420Z,22.29
2017-09-06T14:23:41.897Z,22.24
2017-09-06T14:26:10.329Z,22.41
2017-09-06T14:28:38.864Z,22.45
2017-09-06T14:31:07.335Z,22.61
2017-09-06T14:33:35.780Z,22.82
2017-09-06T14:36:04.222Z,22.95
2017-09-06T14:38:32.697Z,22.73
2017-09-06T14:41:01.206Z,22.56
2017-09-06T14:43:29.643Z,22.62
2017-09-06T14:45:58.137Z,22.43
2017-09-06T14:48:26.619Z,22.33
2017-09-06T14:50:55.050Z,22.16
2017-09-06T14:53:23.503Z,22.02
2017-09-06T14:55:51.967Z,21.89
2017-09-06T14:58:20.445Z,21.71
2017-09-06T15:00:48.881Z,21.67
2017-09-06T15:03:18.226Z,21.51
2017-09-06T15:05:46.700Z,21.39
2017-09-06T15:08:15.188Z,21.01
2017-09-06T15:10:43.644Z,20.76
2017-09-06T15:13:12.263Z,20.63
2017-09-06T15:15:40.837Z,20.44
2017-09-06T15:18:09.326Z,20.33
2017-09-06T15:20:37.806Z,20.22
2017-09-06T15:23:06.285Z,20.13
2017-09-06T15:25:34.759Z,20.06
2017-09-06T15:28:03.211Z,20.01
2017-09-06T15:30:31.723Z,19.91
2017-09-06T15:33:00.212Z,19.96
2017-09-06T15:35:28.659Z,19.95
2017-09-06T15:37:57.169Z,19.95
2017-09-06T15:40:25.647Z,20.01
2017-09-06T15:42:54.131Z,20.03
2017-09-06T15:45:22.627Z,20.12
2017-09-06T15:47:51.060Z,20.10
2017-09-06T15:50:19.521Z,20.16
2017-09-06T15:52:47.955Z,20.13
2017-09-06T15:55:16.451Z,20.11
2017-09-06T15:57:44.924Z,20.17
2017-09-06T16:00:13.414Z,20.10
2017-09-06T16:02:41.866Z,20.03
2017-09-06T16:05:10.386Z,19.96
2017-09-06T16:07:38.825Z,19.93
2017-09-06T16:10:07.348Z,19.82
2017-09-06T16:12:35.817Z,19.70
2017-09-06T16:15:04.268Z,19.66
2017-09-06T16:17:32.697Z,19.58
2017-09-06T16:20:01.161Z,19.57
2017-09-06T16:22:29.606Z,19.51
2017-09-06T16:24:58.056Z,19.48
2017-09-06T16:27:26.511Z,19.46
2017-09-06T16:29:54.977Z,19.40
2017-09-06T16:32:23.464Z,19.30
2017-09-06T16:34:51.914Z,19.17
2017-09-06T16:37:21.119Z,19.18
2017-09-06T16:39:49.636Z,19.09
2017-09-06T16:42:18.197Z,19.14
2017-09-06T16:44:46.701Z,19.07
2017-09-06T16:47:15.139Z,19.03
2017-09-06T16:49:43.665Z,18.97
2017-09-06T16:52:12.150Z,18.88
2017-09-06T16:54:40.581Z,18.70
2017-09-06T16:57:09.114Z,18.53
2017-09-06T16:59:37.548Z,18.39
2017-09-06T17:02:06.012Z,18.41
2017-09-06T17:04:34.435Z,18.39
2017-09-06T17:07:03.440Z,18.43
2017-09-06T17:09:42.690Z,18.38
2017-09-06T17:12:11.160Z,18.40
2017-09-06T17:14:39.639Z,18.40
2017-09-06T17:17:08.096Z,18.35
2017-09-06T17:19:36.613Z,18.25
2017-09-06T17:22:05.055Z,18.17
2017-09-06T17:24:33.563Z,18.00
2017-09-06T17:27:02.049Z,17.96
2017-09-06T17:29:30.532Z,17.72
2017-09-06T17:31:59.021Z,17.70
2017-09-06T17:34:27.506Z,17.61
2017-09-06T17:36:56.284Z,17.50
2017-09-06T17:39:24.756Z,17.38
2017-09-06T17:41:53.247Z,17.32
2017-09-06T17:44:21.737Z,17.30
2017-09-06T17:46:50.228Z,17.17
2017-09-06T17:49:18.705Z,17.01
2017-09-06T17:51:47.165Z,16.93
2017-09-06T17:54:15.653Z,16.92
2017-09-06T17:56:44.151Z,16.78
2017-09-06T17:59:12.575Z,16.75
2017-09-06T18:01:41.039Z,16.66
2017-09-06T18:04:09.488Z,16.65
2017-09-06T18:06:37.977Z,16.62
2017-09-06T18:09:06.443Z,16.56
2017-09-06T18:11:34.935Z,16.50
2017-09-06T18:14:03.407Z,16.48
2017-09-06T18:16:31.835Z,16.43
2017-09-06T18:19:00.388Z,16.36
2017-09-06T18:21:28.860Z,16.34
2017-09-06T18:23:57.349Z,16.29
2017-09-06T18:26:25.779Z,16.26
2017-09-06T18:28:54.324Z,16.25
2017-09-06T18:31:22.758Z,16.20
2017-09-06T18:33:51.221Z,16.22
2017-09-06T18:36:20.373Z,16.22
2017-09-06T18:38:48.820Z,16.18
2017-09-06T18:41:18.021Z,16.06
2017-09-06T18:43:46.477Z,15.97
2017-09-06T18:46:15.028Z,16.00
2017-09-06T18:48:43.588Z,15.96
2017-09-06T18:51:12.089Z,15.88
2017-09-06T18:53:40.544Z,15.88
2017-09-06T18:56:09.032Z,15.84
2017-09-06T18:58:37.516Z,15.85
2017-09-06T19:01:05.943Z,15.81
2017-09-06T19:03:34.494Z,15.77
2017-09-06T19:06:02.922Z,15.68
2017-09-06T19:08:31.377Z,15.65
2017-09-06T19:10:59.849Z,15.63
2017-09-06T19:13:28.423Z,15.58
2017-09-06T19:15:56.902Z,15.53
2017-09-06T19:18:25.386Z,15.49
2017-09-06T19:20:53.826Z,15.41
2017-09-06T19:23:22.341Z,15.39
2017-09-06T19:25:50.826Z,15.34
2017-09-06T19:28:19.320Z,15.29
2017-09-06T19:30:47.777Z,15.27
2017-09-06T19:33:17.104Z,15.30
2017-09-06T19:35:45.664Z,15.27
2017-09-06T19:38:14.151Z,15.21
2017-09-06T19:40:42.632Z,15.21
2017-09-06T19:43:11.127Z,15.17
2017-09-06T19:45:39.575Z,15.15
2017-09-06T19:48:08.084Z,15.16
2017-09-06T19:50:36.522Z,15.14
2017-09-06T19:53:05.055Z,15.09
2017-09-06T19:55:33.523Z,15.10
2017-09-06T19:58:02.019Z,15.09
2017-09-06T20:00:30.506Z,15.10
2017-09-06T20:02:58.942Z,15.07
2017-09-06T20:05:28.276Z,15.08
2017-09-06T20:07:56.751Z,15.04
2017-09-06T20:10:25.235Z,15.04
2017-09-06T20:12:53.720Z,15.02
2017-09-06T20:15:22.208Z,15.00
2017-09-06T20:17:50.637Z,14.97
2017-09-06T20:20:19.173Z,14.95
2017-09-06T20:22:47.635Z,14.96
2017-09-06T20:25:16.127Z,14.88
2017-09-06T20:27:44.612Z,14.84
2017-09-06T20:30:13.087Z,14.85
2017-09-06T20:32:41.518Z,14.82
2017-09-06T20:35:09.984Z,14.78
2017-09-06T20:37:38.434Z,14.72
2017-09-06T20:40:06.930Z,14.72
2017-09-06T20:42:35.383Z,14.68
2017-09-06T20:45:04.600Z,14.65
2017-09-06T20:47:33.057Z,14.68
2017-09-06T20:50:01.475Z,14.61
2017-09-06T20:52:29.937Z,14.56
2017-09-06T20:54:58.364Z,14.47
2017-09-06T20:57:26.923Z,14.46
2017-09-06T20:59:55.342Z,14.45
2017-09-06T21:02:23.793Z,14.38
2017-09-06T21:04:52.211Z,14.36
2017-09-06T21:07:20.737Z,14.29
2017-09-06T21:09:49.180Z,14.19
2017-09-06T21:12:17.692Z,14.20
2017-09-06T21:14:46.189Z,14.13
2017-09-06T21:17:14.628Z,14.15
2017-09-06T21:19:43.074Z,14.10
2017-09-06T21:22:11.621Z,14.09
2017-09-06T21:24:40.058Z,14.09
2017-09-06T21:27:08.498Z,14.03
2017-09-06T21:29:36.948Z,14.03
2017-09-06T21:32:05.445Z,14.04
2017-09-06T21:34:33.928Z,14.03
2017-09-06T21:37:02.360Z,14.02
2017-09-06T21:39:30.808Z,14.02
2017-09-06T21:41:59.280Z,14.05
2017-09-06T21:44:27.765Z,14.00
2017-09-06T21:46:56.246Z,14.02
2017-09-06T21:49:24.720Z,14.02
2017-09-06T21:51:53.209Z,14.02
2017-09-06T21:54:21.657Z,13.99
2017-09-06T21:56:50.179Z,14.00
2017-09-06T21:59:18.651Z,13.98
2017-09-06T22:01:47.127Z,13.97
2017-09-06T22:04:15.573Z,13.95
2017-09-06T22:06:44.087Z,13.98
2017-09-06T22:09:12.540Z,14.02
2017-09-06T22:11:41.054Z,14.01
2017-09-06T22:14:09.513Z,14.05
2017-09-06T22:16:38.019Z,14.04
2017-09-06T22:19:06.513Z,14.05
2017-09-06T22:21:34.997Z,14.04
2017-09-06T22:24:03.464Z,14.05
2017-09-06T22:26:31.893Z,14.10
2017-09-06T22:29:00.352Z,14.13
2017-09-06T22:31:28.779Z,14.12
2017-09-06T22:33:57.704Z,14.14
2017-09-06T22:36:26.135Z,14.16
2017-09-06T22:38:54.577Z,14.14
2017-09-06T22:41:23.047Z,14.13
2017-09-06T22:43:51.532Z,14.16
2017-09-06T22:46:20.011Z,14.17
2017-09-06T22:48:48.491Z,14.19
2017-09-06T22:51:16.988Z,14.17
2017-09-06T22:53:45.429Z,14.18
2017-09-06T22:56:13.939Z,14.21
2017-09-06T22:58:42.431Z,14.21
2017-09-06T23:01:10.904Z,14.21
2017-09-06T23:03:39.392Z,14.20
2017-09-06T23:06:07.864Z,14.20
2017-09-06T23:08:36.302Z,14.21
2017-09-06T23:11:04.761Z,14.20
2017-09-06T23:13:33.212Z,14.23
2017-09-06T23:16:01.706Z,14.23
2017-09-06T23:18:30.149Z,14.22
2017-09-06T23:20:58.588Z,14.26
2017-09-06T23:23:27.036Z,14.26
2017-09-06T23:25:55.525Z,14.25
2017-09-06T23:28:23.951Z,14.26
2017-09-06T23:30:52.400Z,14.26
2017-09-06T23:33:20.877Z,14.29
2017-09-06T23:35:49.342Z,14.30
2017-09-06T23:38:17.828Z,14.30
2017-09-06T23:40:46.319Z,14.29
2017-09-06T23:43:14.760Z,14.28
2017-09-06T23:45:43.219Z,14.27
2017-09-06T23:48:11.760Z,14.28
2017-09-06T23:50:40.229Z,14.28
2017-09-06T23:53:08.724Z,14.32
2017-09-06T23:55:37.209Z,14.29
2017-09-06T23:58:05.689Z,14.30
